03TX weather

M D K Field
Pearland, Texas, United States

Public forecast

Using degrees Fahrenheit for public forecast. Weather courtesy of forecast.io.

Closest aviation weather report (METAR) to M D K Field

Closest report is William P Hobby Airport, 4.1 nm (7.6 km) NNE. Retrieved 2020/08/05 23:53 UTC (53 minutes ago):

KHOU 052353Z 19009KT 10SM FEW050 FEW080 SCT250 33/19 A2991 RMK AO2 SLP133 T03330189 10350 20333 55012

Closest aviation forecast (TAF) to M D K Field

Closest forecast is William P Hobby Airport, 4.1 nm (7.6 km) NNE. Retrieved 2020-08-06 00:42 UTC (4 minutes ago):

TAF KHOU 052340Z 0600/0624 19012KT P6SM SCT040 FM060100 16004KT P6SM FEW250 FM061500 20006KT P6SM FEW035 SCT070 FM062000 16006KT P6SM VCTS SCT040CB BKN070